sensor_id;sensor_type;location;lat;lon;timestamp;P1;durP1;ratioP1;P2;durP2;ratioP2
61460;SDS011;47325;50.506;4.472;2023-12-04T00:00:02;7.50;;;3.70;;
61460;SDS011;47325;50.506;4.472;2023-12-04T00:05:46;6.00;;;3.40;;
61460;SDS011;47325;50.506;4.472;2023-12-04T00:11:30;8.30;;;3.70;;
61460;SDS011;47325;50.506;4.472;2023-12-04T00:17:16;7.60;;;4.00;;
61460;SDS011;47325;50.506;4.472;2023-12-04T00:23:00;7.30;;;3.80;;
61460;SDS011;47325;50.506;4.472;2023-12-04T00:28:44;6.60;;;3.80;;
61460;SDS011;47325;50.506;4.472;2023-12-04T00:34:27;7.20;;;3.60;;
61460;SDS011;47325;50.506;4.472;2023-12-04T00:40:12;6.80;;;3.70;;
61460;SDS011;47325;50.506;4.472;2023-12-04T00:45:56;6.80;;;3.60;;
61460;SDS011;47325;50.506;4.472;2023-12-04T00:51:41;8.50;;;3.90;;
61460;SDS011;47325;50.506;4.472;2023-12-04T00:57:25;6.20;;;3.50;;
61460;SDS011;47325;50.506;4.472;2023-12-04T01:03:11;7.00;;;3.60;;
61460;SDS011;47325;50.506;4.472;2023-12-04T01:08:55;7.50;;;3.30;;
61460;SDS011;47325;50.506;4.472;2023-12-04T01:14:39;6.10;;;3.40;;
61460;SDS011;47325;50.506;4.472;2023-12-04T01:20:23;6.40;;;3.50;;
61460;SDS011;47325;50.506;4.472;2023-12-04T01:26:09;6.20;;;3.30;;
61460;SDS011;47325;50.506;4.472;2023-12-04T01:31:53;6.10;;;3.30;;
61460;SDS011;47325;50.506;4.472;2023-12-04T01:37:37;6.30;;;3.40;;
61460;SDS011;47325;50.506;4.472;2023-12-04T01:43:21;6.90;;;3.40;;
61460;SDS011;47325;50.506;4.472;2023-12-04T01:49:05;5.90;;;3.30;;
61460;SDS011;47325;50.506;4.472;2023-12-04T01:54:50;5.60;;;3.10;;
61460;SDS011;47325;50.506;4.472;2023-12-04T02:00:34;5.20;;;2.80;;
61460;SDS011;47325;50.506;4.472;2023-12-04T02:06:18;5.90;;;3.30;;
61460;SDS011;47325;50.506;4.472;2023-12-04T02:12:02;6.40;;;3.50;;
61460;SDS011;47325;50.506;4.472;2023-12-04T02:17:47;8.00;;;3.50;;
61460;SDS011;47325;50.506;4.472;2023-12-04T02:23:31;6.00;;;3.40;;
61460;SDS011;47325;50.506;4.472;2023-12-04T02:29:16;5.90;;;2.90;;
61460;SDS011;47325;50.506;4.472;2023-12-04T02:35:04;5.40;;;3.20;;
61460;SDS011;47325;50.506;4.472;2023-12-04T02:40:49;5.00;;;3.00;;
61460;SDS011;47325;50.506;4.472;2023-12-04T02:46:33;5.70;;;3.10;;
61460;SDS011;47325;50.506;4.472;2023-12-04T02:52:18;5.80;;;3.20;;
61460;SDS011;47325;50.506;4.472;2023-12-04T02:58:01;6.40;;;3.20;;
61460;SDS011;47325;50.506;4.472;2023-12-04T03:03:46;5.70;;;3.10;;
61460;SDS011;47325;50.506;4.472;2023-12-04T03:09:30;6.10;;;3.10;;
61460;SDS011;47325;50.506;4.472;2023-12-04T03:15:29;5.60;;;3.00;;
61460;SDS011;47325;50.506;4.472;2023-12-04T03:21:14;6.50;;;3.50;;
61460;SDS011;47325;50.506;4.472;2023-12-04T03:26:58;4.80;;;3.10;;
61460;SDS011;47325;50.506;4.472;2023-12-04T03:32:42;5.10;;;3.00;;
61460;SDS011;47325;50.506;4.472;2023-12-04T03:38:26;6.20;;;2.80;;
61460;SDS011;47325;50.506;4.472;2023-12-04T03:44:10;5.80;;;3.00;;
61460;SDS011;47325;50.506;4.472;2023-12-04T03:49:54;5.30;;;3.00;;
61460;SDS011;47325;50.506;4.472;2023-12-04T03:55:38;4.40;;;2.70;;
61460;SDS011;47325;50.506;4.472;2023-12-04T04:01:22;5.50;;;3.00;;
61460;SDS011;47325;50.506;4.472;2023-12-04T04:07:07;5.20;;;2.80;;
61460;SDS011;47325;50.506;4.472;2023-12-04T04:12:51;4.90;;;2.90;;
61460;SDS011;47325;50.506;4.472;2023-12-04T04:18:35;5.00;;;2.70;;
61460;SDS011;47325;50.506;4.472;2023-12-04T04:24:19;5.00;;;3.00;;
61460;SDS011;47325;50.506;4.472;2023-12-04T04:30:05;5.30;;;2.50;;
61460;SDS011;47325;50.506;4.472;2023-12-04T04:35:49;4.80;;;2.90;;
61460;SDS011;47325;50.506;4.472;2023-12-04T04:41:33;5.00;;;2.70;;
61460;SDS011;47325;50.506;4.472;2023-12-04T04:47:17;5.60;;;2.80;;
61460;SDS011;47325;50.506;4.472;2023-12-04T04:53:01;4.90;;;2.60;;
61460;SDS011;47325;50.506;4.472;2023-12-04T04:58:45;5.70;;;2.80;;
61460;SDS011;47325;50.506;4.472;2023-12-04T05:04:35;4.70;;;2.50;;
61460;SDS011;47325;50.506;4.472;2023-12-04T05:10:20;3.70;;;2.50;;
61460;SDS011;47325;50.506;4.472;2023-12-04T05:16:05;4.50;;;2.70;;
61460;SDS011;47325;50.506;4.472;2023-12-04T05:21:49;4.60;;;2.70;;
61460;SDS011;47325;50.506;4.472;2023-12-04T05:27:33;4.80;;;2.60;;
61460;SDS011;47325;50.506;4.472;2023-12-04T05:33:18;4.80;;;2.60;;
61460;SDS011;47325;50.506;4.472;2023-12-04T05:39:03;4.70;;;2.40;;
61460;SDS011;47325;50.506;4.472;2023-12-04T05:44:46;4.10;;;2.50;;
61460;SDS011;47325;50.506;4.472;2023-12-04T05:50:31;5.10;;;2.60;;
61460;SDS011;47325;50.506;4.472;2023-12-04T05:56:14;4.00;;;2.70;;
61460;SDS011;47325;50.506;4.472;2023-12-04T06:01:59;4.00;;;2.50;;
61460;SDS011;47325;50.506;4.472;2023-12-04T06:07:44;5.70;;;3.00;;
61460;SDS011;47325;50.506;4.472;2023-12-04T06:13:28;5.30;;;2.90;;
61460;SDS011;47325;50.506;4.472;2023-12-04T06:19:12;5.20;;;2.90;;
61460;SDS011;47325;50.506;4.472;2023-12-04T06:24:57;5.40;;;2.90;;
61460;SDS011;47325;50.506;4.472;2023-12-04T06:30:42;5.80;;;2.80;;
61460;SDS011;47325;50.506;4.472;2023-12-04T06:36:27;5.50;;;3.20;;
61460;SDS011;47325;50.506;4.472;2023-12-04T06:42:13;12.00;;;3.00;;
61460;SDS011;47325;50.506;4.472;2023-12-04T06:47:57;6.30;;;3.30;;
61460;SDS011;47325;50.506;4.472;2023-12-04T06:53:42;6.10;;;3.10;;
61460;SDS011;47325;50.506;4.472;2023-12-04T06:59:26;4.10;;;2.70;;
61460;SDS011;47325;50.506;4.472;2023-12-04T07:05:10;5.60;;;3.10;;
61460;SDS011;47325;50.506;4.472;2023-12-04T07:10:54;5.80;;;3.30;;
61460;SDS011;47325;50.506;4.472;2023-12-04T07:16:42;5.40;;;3.10;;
61460;SDS011;47325;50.506;4.472;2023-12-04T07:22:27;6.00;;;3.00;;
61460;SDS011;47325;50.506;4.472;2023-12-04T07:28:18;5.40;;;3.20;;
61460;SDS011;47325;50.506;4.472;2023-12-04T07:34:02;5.30;;;3.10;;
61460;SDS011;47325;50.506;4.472;2023-12-04T07:39:47;5.80;;;3.10;;
61460;SDS011;47325;50.506;4.472;2023-12-04T07:45:31;5.50;;;3.20;;
61460;SDS011;47325;50.506;4.472;2023-12-04T07:51:15;6.50;;;3.20;;
61460;SDS011;47325;50.506;4.472;2023-12-04T07:56:59;4.50;;;2.70;;
61460;SDS011;47325;50.506;4.472;2023-12-04T08:02:43;6.40;;;3.10;;
61460;SDS011;47325;50.506;4.472;2023-12-04T08:08:28;4.40;;;2.80;;
61460;SDS011;47325;50.506;4.472;2023-12-04T08:14:12;6.20;;;3.20;;
61460;SDS011;47325;50.506;4.472;2023-12-04T08:19:56;5.00;;;3.00;;
61460;SDS011;47325;50.506;4.472;2023-12-04T08:25:41;5.60;;;2.90;;
61460;SDS011;47325;50.506;4.472;2023-12-04T08:31:25;5.00;;;3.10;;
61460;SDS011;47325;50.506;4.472;2023-12-04T08:37:09;4.60;;;3.00;;
61460;SDS011;47325;50.506;4.472;2023-12-04T08:42:54;4.80;;;3.00;;
61460;SDS011;47325;50.506;4.472;2023-12-04T08:48:38;5.70;;;3.00;;
61460;SDS011;47325;50.506;4.472;2023-12-04T08:54:23;5.20;;;3.00;;
61460;SDS011;47325;50.506;4.472;2023-12-04T09:00:09;4.70;;;2.90;;
61460;SDS011;47325;50.506;4.472;2023-12-04T09:05:53;6.70;;;3.20;;
61460;SDS011;47325;50.506;4.472;2023-12-04T09:11:38;4.70;;;2.80;;
61460;SDS011;47325;50.506;4.472;2023-12-04T09:17:24;4.30;;;2.70;;
61460;SDS011;47325;50.506;4.472;2023-12-04T09:23:21;5.10;;;3.00;;
61460;SDS011;47325;50.506;4.472;2023-12-04T09:29:09;4.70;;;3.10;;
61460;SDS011;47325;50.506;4.472;2023-12-04T09:34:54;5.30;;;3.00;;
61460;SDS011;47325;50.506;4.472;2023-12-04T09:40:38;4.60;;;2.80;;
61460;SDS011;47325;50.506;4.472;2023-12-04T09:46:22;4.10;;;2.50;;
61460;SDS011;47325;50.506;4.472;2023-12-04T09:52:06;4.80;;;2.60;;
61460;SDS011;47325;50.506;4.472;2023-12-04T09:57:50;5.20;;;2.80;;
61460;SDS011;47325;50.506;4.472;2023-12-04T10:03:35;4.80;;;2.50;;
61460;SDS011;47325;50.506;4.472;2023-12-04T10:09:20;4.90;;;3.30;;
61460;SDS011;47325;50.506;4.472;2023-12-04T10:15:08;4.60;;;2.90;;
61460;SDS011;47325;50.506;4.472;2023-12-04T10:20:55;5.90;;;3.00;;
61460;SDS011;47325;50.506;4.472;2023-12-04T10:26:39;5.40;;;3.10;;
61460;SDS011;47325;50.506;4.472;2023-12-04T10:32:31;5.40;;;3.30;;
61460;SDS011;47325;50.506;4.472;2023-12-04T10:38:16;4.90;;;2.70;;
61460;SDS011;47325;50.506;4.472;2023-12-04T10:44:05;5.00;;;2.80;;
61460;SDS011;47325;50.506;4.472;2023-12-04T10:49:53;4.70;;;2.90;;
61460;SDS011;47325;50.506;4.472;2023-12-04T10:55:39;4.30;;;2.70;;
61460;SDS011;47325;50.506;4.472;2023-12-04T11:01:23;4.00;;;2.50;;
61460;SDS011;47325;50.506;4.472;2023-12-04T11:07:09;5.30;;;2.70;;
61460;SDS011;47325;50.506;4.472;2023-12-04T11:12:54;4.40;;;2.50;;
61460;SDS011;47325;50.506;4.472;2023-12-04T11:18:43;5.00;;;2.70;;
61460;SDS011;47325;50.506;4.472;2023-12-04T11:24:27;5.10;;;2.90;;
61460;SDS011;47325;50.506;4.472;2023-12-04T11:30:12;5.10;;;2.90;;
61460;SDS011;47325;50.506;4.472;2023-12-04T11:36:09;3.80;;;2.50;;
61460;SDS011;47325;50.506;4.472;2023-12-04T11:41:58;4.00;;;2.60;;
61460;SDS011;47325;50.506;4.472;2023-12-04T11:47:54;4.60;;;2.80;;
61460;SDS011;47325;50.506;4.472;2023-12-04T11:53:41;3.90;;;2.40;;
61460;SDS011;47325;50.506;4.472;2023-12-04T11:59:27;4.30;;;2.50;;
61460;SDS011;47325;50.506;4.472;2023-12-04T12:05:11;5.10;;;2.60;;
61460;SDS011;47325;50.506;4.472;2023-12-04T12:10:56;3.50;;;2.20;;
61460;SDS011;47325;50.506;4.472;2023-12-04T12:16:41;5.70;;;2.70;;
61460;SDS011;47325;50.506;4.472;2023-12-04T12:22:24;3.80;;;2.30;;
61460;SDS011;47325;50.506;4.472;2023-12-04T12:28:09;3.40;;;2.30;;
61460;SDS011;47325;50.506;4.472;2023-12-04T12:33:53;3.70;;;2.30;;
61460;SDS011;47325;50.506;4.472;2023-12-04T12:39:41;4.30;;;2.00;;
61460;SDS011;47325;50.506;4.472;2023-12-04T12:45:25;3.70;;;2.10;;
61460;SDS011;47325;50.506;4.472;2023-12-04T12:51:10;4.00;;;2.10;;
61460;SDS011;47325;50.506;4.472;2023-12-04T12:56:55;3.40;;;2.10;;
61460;SDS011;47325;50.506;4.472;2023-12-04T13:02:39;3.20;;;2.00;;
61460;SDS011;47325;50.506;4.472;2023-12-04T13:08:23;3.10;;;2.00;;
61460;SDS011;47325;50.506;4.472;2023-12-04T13:14:08;3.90;;;2.00;;
61460;SDS011;47325;50.506;4.472;2023-12-04T13:19:52;2.50;;;1.60;;
61460;SDS011;47325;50.506;4.472;2023-12-04T13:25:36;2.60;;;1.70;;
61460;SDS011;47325;50.506;4.472;2023-12-04T13:31:20;2.50;;;2.00;;
61460;SDS011;47325;50.506;4.472;2023-12-04T13:37:07;2.30;;;1.60;;
61460;SDS011;47325;50.506;4.472;2023-12-04T13:42:51;2.90;;;1.60;;
61460;SDS011;47325;50.506;4.472;2023-12-04T13:48:37;3.00;;;1.80;;
61460;SDS011;47325;50.506;4.472;2023-12-04T13:54:22;2.90;;;1.70;;
61460;SDS011;47325;50.506;4.472;2023-12-04T14:00:08;3.20;;;1.90;;
61460;SDS011;47325;50.506;4.472;2023-12-04T14:05:52;3.30;;;1.70;;
61460;SDS011;47325;50.506;4.472;2023-12-04T14:11:37;3.90;;;2.00;;
61460;SDS011;47325;50.506;4.472;2023-12-04T14:17:22;3.20;;;1.90;;
61460;SDS011;47325;50.506;4.472;2023-12-04T14:23:06;3.30;;;1.90;;
61460;SDS011;47325;50.506;4.472;2023-12-04T14:28:50;3.00;;;1.90;;
61460;SDS011;47325;50.506;4.472;2023-12-04T14:34:34;3.70;;;2.00;;
61460;SDS011;47325;50.506;4.472;2023-12-04T14:40:19;3.30;;;2.00;;
61460;SDS011;47325;50.506;4.472;2023-12-04T14:46:03;3.60;;;1.90;;
61460;SDS011;47325;50.506;4.472;2023-12-04T14:51:47;2.70;;;2.00;;
61460;SDS011;47325;50.506;4.472;2023-12-04T14:57:31;3.20;;;1.80;;
61460;SDS011;47325;50.506;4.472;2023-12-04T15:03:15;3.50;;;1.80;;
61460;SDS011;47325;50.506;4.472;2023-12-04T15:09:00;2.40;;;1.80;;
61460;SDS011;47325;50.506;4.472;2023-12-04T15:14:44;3.30;;;2.10;;
61460;SDS011;47325;50.506;4.472;2023-12-04T15:20:28;4.00;;;2.00;;
61460;SDS011;47325;50.506;4.472;2023-12-04T15:26:12;3.10;;;2.00;;
61460;SDS011;47325;50.506;4.472;2023-12-04T15:31:56;3.60;;;2.00;;
61460;SDS011;47325;50.506;4.472;2023-12-04T15:37:40;3.20;;;1.90;;
61460;SDS011;47325;50.506;4.472;2023-12-04T15:43:25;3.10;;;2.00;;
61460;SDS011;47325;50.506;4.472;2023-12-04T15:49:09;3.30;;;2.20;;
61460;SDS011;47325;50.506;4.472;2023-12-04T15:54:54;2.90;;;2.10;;
61460;SDS011;47325;50.506;4.472;2023-12-04T16:00:38;3.00;;;2.00;;
61460;SDS011;47325;50.506;4.472;2023-12-04T16:06:22;2.80;;;2.00;;
61460;SDS011;47325;50.506;4.472;2023-12-04T16:12:08;3.70;;;2.00;;
61460;SDS011;47325;50.506;4.472;2023-12-04T16:17:55;3.40;;;2.10;;
61460;SDS011;47325;50.506;4.472;2023-12-04T16:23:39;4.00;;;2.10;;
61460;SDS011;47325;50.506;4.472;2023-12-04T16:29:23;3.00;;;2.30;;
61460;SDS011;47325;50.506;4.472;2023-12-04T16:35:08;2.90;;;2.10;;
61460;SDS011;47325;50.506;4.472;2023-12-04T16:40:52;3.40;;;2.10;;
61460;SDS011;47325;50.506;4.472;2023-12-04T16:46:42;2.90;;;2.00;;
61460;SDS011;47325;50.506;4.472;2023-12-04T16:52:26;3.20;;;2.00;;
61460;SDS011;47325;50.506;4.472;2023-12-04T16:58:10;4.50;;;2.20;;
61460;SDS011;47325;50.506;4.472;2023-12-04T17:03:55;2.90;;;2.00;;
61460;SDS011;47325;50.506;4.472;2023-12-04T17:09:40;4.50;;;2.30;;
61460;SDS011;47325;50.506;4.472;2023-12-04T17:15:24;5.60;;;2.90;;
61460;SDS011;47325;50.506;4.472;2023-12-04T17:21:11;4.30;;;2.60;;
61460;SDS011;47325;50.506;4.472;2023-12-04T17:26:55;4.90;;;2.60;;
61460;SDS011;47325;50.506;4.472;2023-12-04T17:32:39;4.50;;;2.80;;
61460;SDS011;47325;50.506;4.472;2023-12-04T17:38:23;5.10;;;2.90;;
61460;SDS011;47325;50.506;4.472;2023-12-04T17:44:08;19.80;;;7.80;;
61460;SDS011;47325;50.506;4.472;2023-12-04T17:49:51;118.70;;;41.10;;
61460;SDS011;47325;50.506;4.472;2023-12-04T17:55:35;64.80;;;23.40;;
61460;SDS011;47325;50.506;4.472;2023-12-04T18:01:19;50.20;;;18.20;;
61460;SDS011;47325;50.506;4.472;2023-12-04T18:07:03;48.20;;;17.80;;
61460;SDS011;47325;50.506;4.472;2023-12-04T18:12:48;42.70;;;15.80;;
61460;SDS011;47325;50.506;4.472;2023-12-04T18:18:33;45.40;;;15.70;;
61460;SDS011;47325;50.506;4.472;2023-12-04T18:24:18;62.50;;;21.60;;
61460;SDS011;47325;50.506;4.472;2023-12-04T18:30:03;56.60;;;18.70;;
61460;SDS011;47325;50.506;4.472;2023-12-04T18:35:47;41.50;;;16.10;;
61460;SDS011;47325;50.506;4.472;2023-12-04T18:41:33;41.40;;;15.20;;
61460;SDS011;47325;50.506;4.472;2023-12-04T18:47:17;36.80;;;14.30;;
61460;SDS011;47325;50.506;4.472;2023-12-04T18:53:02;38.40;;;13.80;;
61460;SDS011;47325;50.506;4.472;2023-12-04T18:58:47;29.60;;;12.30;;
61460;SDS011;47325;50.506;4.472;2023-12-04T19:04:31;28.70;;;11.90;;
61460;SDS011;47325;50.506;4.472;2023-12-04T19:10:16;23.20;;;10.60;;
61460;SDS011;47325;50.506;4.472;2023-12-04T19:16:00;30.30;;;10.90;;
61460;SDS011;47325;50.506;4.472;2023-12-04T19:21:44;25.10;;;10.00;;
61460;SDS011;47325;50.506;4.472;2023-12-04T19:27:28;24.80;;;10.10;;
61460;SDS011;47325;50.506;4.472;2023-12-04T19:33:12;23.60;;;9.00;;
61460;SDS011;47325;50.506;4.472;2023-12-04T19:39:11;22.90;;;9.40;;
61460;SDS011;47325;50.506;4.472;2023-12-04T19:44:56;19.60;;;8.70;;
61460;SDS011;47325;50.506;4.472;2023-12-04T19:50:43;18.80;;;8.40;;
61460;SDS011;47325;50.506;4.472;2023-12-04T19:56:27;19.20;;;8.00;;
61460;SDS011;47325;50.506;4.472;2023-12-04T20:02:11;17.50;;;7.60;;
61460;SDS011;47325;50.506;4.472;2023-12-04T20:07:56;17.60;;;7.50;;
61460;SDS011;47325;50.506;4.472;2023-12-04T20:13:41;16.70;;;7.40;;
61460;SDS011;47325;50.506;4.472;2023-12-04T20:19:25;14.50;;;7.00;;
61460;SDS011;47325;50.506;4.472;2023-12-04T20:25:11;14.50;;;6.60;;
61460;SDS011;47325;50.506;4.472;2023-12-04T20:30:55;15.70;;;6.90;;
61460;SDS011;47325;50.506;4.472;2023-12-04T20:36:39;14.10;;;6.80;;
61460;SDS011;47325;50.506;4.472;2023-12-04T20:42:23;12.30;;;5.80;;
61460;SDS011;47325;50.506;4.472;2023-12-04T20:48:08;12.10;;;5.90;;
61460;SDS011;47325;50.506;4.472;2023-12-04T20:53:53;14.40;;;5.70;;
61460;SDS011;47325;50.506;4.472;2023-12-04T20:59:39;12.20;;;5.40;;
61460;SDS011;47325;50.506;4.472;2023-12-04T21:05:24;11.60;;;5.40;;
61460;SDS011;47325;50.506;4.472;2023-12-04T21:11:10;10.50;;;5.20;;
61460;SDS011;47325;50.506;4.472;2023-12-04T21:16:54;12.30;;;4.90;;
61460;SDS011;47325;50.506;4.472;2023-12-04T21:22:43;9.10;;;4.90;;
61460;SDS011;47325;50.506;4.472;2023-12-04T21:28:27;9.50;;;4.60;;
61460;SDS011;47325;50.506;4.472;2023-12-04T21:34:11;9.50;;;4.40;;
61460;SDS011;47325;50.506;4.472;2023-12-04T21:39:56;8.20;;;4.30;;
61460;SDS011;47325;50.506;4.472;2023-12-04T21:45:42;8.50;;;4.30;;
61460;SDS011;47325;50.506;4.472;2023-12-04T21:51:28;7.50;;;3.90;;
61460;SDS011;47325;50.506;4.472;2023-12-04T21:57:12;8.00;;;3.60;;
61460;SDS011;47325;50.506;4.472;2023-12-04T22:02:56;6.90;;;3.70;;
61460;SDS011;47325;50.506;4.472;2023-12-04T22:08:40;6.90;;;3.40;;
61460;SDS011;47325;50.506;4.472;2023-12-04T22:14:25;6.20;;;3.40;;
61460;SDS011;47325;50.506;4.472;2023-12-04T22:20:10;6.50;;;3.30;;
61460;SDS011;47325;50.506;4.472;2023-12-04T22:25:54;6.40;;;3.10;;
61460;SDS011;47325;50.506;4.472;2023-12-04T22:31:39;6.80;;;3.30;;
61460;SDS011;47325;50.506;4.472;2023-12-04T22:37:23;5.10;;;2.90;;
61460;SDS011;47325;50.506;4.472;2023-12-04T22:43:08;6.50;;;2.80;;
61460;SDS011;47325;50.506;4.472;2023-12-04T22:48:52;5.10;;;2.70;;
61460;SDS011;47325;50.506;4.472;2023-12-04T22:54:37;5.90;;;2.80;;
61460;SDS011;47325;50.506;4.472;2023-12-04T23:00:22;5.30;;;2.70;;
61460;SDS011;47325;50.506;4.472;2023-12-04T23:06:06;4.90;;;2.50;;
61460;SDS011;47325;50.506;4.472;2023-12-04T23:11:50;5.60;;;2.50;;
61460;SDS011;47325;50.506;4.472;2023-12-04T23:17:34;4.80;;;2.30;;
61460;SDS011;47325;50.506;4.472;2023-12-04T23:23:19;4.00;;;2.30;;
61460;SDS011;47325;50.506;4.472;2023-12-04T23:29:03;3.20;;;2.10;;
61460;SDS011;47325;50.506;4.472;2023-12-04T23:34:47;3.50;;;1.90;;
61460;SDS011;47325;50.506;4.472;2023-12-04T23:40:31;3.80;;;2.20;;
61460;SDS011;47325;50.506;4.472;2023-12-04T23:46:15;4.10;;;2.00;;
61460;SDS011;47325;50.506;4.472;2023-12-04T23:51:59;4.00;;;2.10;;
61460;SDS011;47325;50.506;4.472;2023-12-04T23:57:43;5.20;;;2.10;;
